createdAt,value
2018-03-15T00:00:54.345Z,99.90
2018-03-15T00:03:27.677Z,99.90
2018-03-15T00:05:55.297Z,99.90
2018-03-15T00:08:23.690Z,99.90
2018-03-15T00:10:52.062Z,99.90
2018-03-15T00:13:20.345Z,99.90
2018-03-15T00:15:48.901Z,99.90
2018-03-15T00:18:17.188Z,99.90
2018-03-15T00:20:45.478Z,99.90
2018-03-15T00:23:12.999Z,99.90
2018-03-15T00:25:40.505Z,99.90
2018-03-15T00:28:08.812Z,99.90
2018-03-15T00:30:36.325Z,99.90
2018-03-15T00:33:04.645Z,99.90
2018-03-15T00:35:32.195Z,99.90
2018-03-15T00:37:59.690Z,99.90
2018-03-15T00:40:27.202Z,99.90
2018-03-15T00:42:54.753Z,99.90
2018-03-15T00:45:22.274Z,99.90
2018-03-15T00:47:49.774Z,99.90
2018-03-15T00:50:18.049Z,99.90
2018-03-15T00:52:46.414Z,99.90
2018-03-15T00:55:16.437Z,99.90
2018-03-15T00:57:44.178Z,99.90
2018-03-15T01:00:12.484Z,99.90
2018-03-15T01:02:40.762Z,99.90
2018-03-15T01:05:09.031Z,99.90
2018-03-15T01:07:37.341Z,99.90
2018-03-15T01:10:04.864Z,99.90
2018-03-15T01:12:33.180Z,99.90
2018-03-15T01:15:00.694Z,99.90
2018-03-15T01:17:28.984Z,99.90
2018-03-15T01:19:57.260Z,99.90
2018-03-15T01:22:24.862Z,99.90
2018-03-15T01:24:52.369Z,99.90
2018-03-15T01:27:20.666Z,99.90
2018-03-15T01:29:48.928Z,99.90
2018-03-15T01:32:17.292Z,99.90
2018-03-15T01:34:44.796Z,99.90
2018-03-15T01:37:12.305Z,99.90
2018-03-15T01:39:40.566Z,99.90
2018-03-15T01:42:08.072Z,99.90
2018-03-15T01:44:36.339Z,99.90
2018-03-15T01:47:04.623Z,99.90
2018-03-15T01:49:32.921Z,99.90
2018-03-15T01:52:00.485Z,99.90
2018-03-15T01:54:28.018Z,99.90
2018-03-15T01:56:55.596Z,99.90
2018-03-15T01:59:23.126Z,99.90
2018-03-15T02:01:51.427Z,99.90
2018-03-15T02:04:19.000Z,99.90
2018-03-15T02:06:46.534Z,99.90
2018-03-15T02:09:14.842Z,99.90
2018-03-15T02:11:42.463Z,99.90
2018-03-15T02:14:10.769Z,99.90
2018-03-15T02:16:38.323Z,99.90
2018-03-15T02:19:05.896Z,99.90
2018-03-15T02:21:33.386Z,99.90
2018-03-15T02:24:00.883Z,99.90
2018-03-15T02:26:29.154Z,99.90
2018-03-15T02:28:57.449Z,99.90
2018-03-15T02:31:24.959Z,99.90
2018-03-15T02:33:52.476Z,99.90
2018-03-15T02:36:20.002Z,99.90
2018-03-15T02:38:48.269Z,99.90
2018-03-15T02:41:15.765Z,99.90
2018-03-15T02:43:43.332Z,99.90
2018-03-15T02:46:10.878Z,99.90
2018-03-15T02:48:38.407Z,99.90
2018-03-15T02:51:05.908Z,99.90
2018-03-15T02:53:33.454Z,99.90
2018-03-15T02:56:00.978Z,99.90
2018-03-15T02:58:28.508Z,99.90
2018-03-15T03:00:56.023Z,99.90
2018-03-15T03:03:23.523Z,99.90
2018-03-15T03:05:51.056Z,99.90
2018-03-15T03:08:18.614Z,99.90
2018-03-15T03:10:46.133Z,99.90
2018-03-15T03:13:13.619Z,99.90
2018-03-15T03:15:41.127Z,99.90
2018-03-15T03:18:08.758Z,99.90
2018-03-15T03:20:36.276Z,99.90
2018-03-15T03:23:04.542Z,99.90
2018-03-15T03:25:32.041Z,99.90
2018-03-15T03:27:59.590Z,99.90
2018-03-15T03:30:27.190Z,99.90
2018-03-15T03:32:54.726Z,99.90
2018-03-15T03:35:22.292Z,99.90
2018-03-15T03:37:49.789Z,99.90
2018-03-15T03:40:17.317Z,99.90
2018-03-15T03:42:44.843Z,99.90
2018-03-15T03:45:12.466Z,99.90
2018-03-15T03:47:40.070Z,99.90
2018-03-15T03:50:08.455Z,99.90
2018-03-15T03:52:36.784Z,99.90
2018-03-15T03:55:04.397Z,99.90
2018-03-15T03:57:32.045Z,99.90
2018-03-15T03:59:59.538Z,99.90
2018-03-15T04:02:27.080Z,99.90
2018-03-15T04:04:54.594Z,99.90
2018-03-15T04:07:22.172Z,99.90
2018-03-15T04:09:50.444Z,99.90
2018-03-15T04:12:18.728Z,99.90
2018-03-15T04:14:47.006Z,99.90
2018-03-15T04:17:15.276Z,99.90
2018-03-15T04:19:43.554Z,99.90
2018-03-15T04:22:11.851Z,99.90
2018-03-15T04:24:39.365Z,99.90
2018-03-15T04:27:06.871Z,99.90
2018-03-15T04:29:35.055Z,99.90
2018-03-15T04:32:02.573Z,99.90
2018-03-15T04:34:30.173Z,99.90
2018-03-15T04:36:57.705Z,99.90
2018-03-15T04:39:25.959Z,99.90
2018-03-15T04:41:53.468Z,99.90
2018-03-15T04:44:20.960Z,99.90
2018-03-15T04:46:48.455Z,99.90
2018-03-15T04:49:16.025Z,99.90
2018-03-15T04:51:44.297Z,99.90
2018-03-15T04:54:12.571Z,99.90
2018-03-15T04:56:40.875Z,99.90
2018-03-15T04:59:08.358Z,99.90
2018-03-15T05:01:35.871Z,99.90
2018-03-15T05:04:04.128Z,99.90
2018-03-15T05:06:31.710Z,99.90
2018-03-15T05:08:59.969Z,99.90
2018-03-15T05:11:27.829Z,99.90
2018-03-15T05:13:55.421Z,99.90
2018-03-15T05:16:23.684Z,99.90
2018-03-15T05:18:51.259Z,99.90
2018-03-15T05:21:19.544Z,99.90
2018-03-15T05:23:47.054Z,99.90
2018-03-15T05:26:14.674Z,99.90
2018-03-15T05:28:42.188Z,99.90
2018-03-15T05:31:09.738Z,99.90
2018-03-15T05:33:37.192Z,99.90
2018-03-15T05:36:04.703Z,99.90
2018-03-15T05:38:32.210Z,99.90
2018-03-15T05:40:59.731Z,99.90
2018-03-15T05:43:27.257Z,99.90
2018-03-15T05:45:55.536Z,99.90
2018-03-15T05:48:23.811Z,99.90
2018-03-15T05:50:51.368Z,99.90
2018-03-15T05:53:19.632Z,99.90
2018-03-15T05:55:47.905Z,99.90
2018-03-15T05:58:15.412Z,99.90
2018-03-15T06:00:42.922Z,99.90
2018-03-15T06:03:10.406Z,99.90
2018-03-15T06:05:37.992Z,99.90
2018-03-15T06:08:05.496Z,99.90
2018-03-15T06:10:33.097Z,99.90
2018-03-15T06:13:00.655Z,99.90
2018-03-15T06:15:28.156Z,99.90
2018-03-15T06:17:55.688Z,99.90
2018-03-15T06:20:23.210Z,99.90
2018-03-15T06:22:50.745Z,99.90
2018-03-15T06:25:18.336Z,99.90
2018-03-15T06:27:45.859Z,99.90
2018-03-15T06:30:13.378Z,99.90
2018-03-15T06:32:40.905Z,99.90
2018-03-15T06:35:09.161Z,99.90
2018-03-15T06:37:36.779Z,99.90
2018-03-15T06:40:04.276Z,99.90
2018-03-15T06:42:31.828Z,99.90
2018-03-15T06:44:59.709Z,99.90
2018-03-15T06:47:27.778Z,99.90
2018-03-15T06:49:56.067Z,99.90
2018-03-15T06:52:23.572Z,99.90
2018-03-15T06:54:51.113Z,99.90
2018-03-15T06:57:18.603Z,99.90
2018-03-15T06:59:46.221Z,99.90
2018-03-15T07:02:14.539Z,99.90
2018-03-15T07:04:42.053Z,99.90
2018-03-15T07:07:10.318Z,99.90
2018-03-15T07:09:37.846Z,99.90
2018-03-15T07:12:05.367Z,99.90
2018-03-15T07:14:32.886Z,99.90
2018-03-15T07:17:01.181Z,99.90
2018-03-15T07:19:29.487Z,99.90
2018-03-15T07:21:56.998Z,99.90
2018-03-15T07:24:25.295Z,99.90
2018-03-15T07:26:53.572Z,99.90
2018-03-15T07:29:21.853Z,99.90
2018-03-15T07:31:50.120Z,99.90
2018-03-15T07:34:18.454Z,99.90
2018-03-15T07:36:45.967Z,99.90
2018-03-15T07:39:14.303Z,99.90
2018-03-15T07:41:41.797Z,99.90
2018-03-15T07:44:10.813Z,99.90
2018-03-15T07:46:38.375Z,99.90
2018-03-15T07:49:05.906Z,99.90
2018-03-15T07:51:33.415Z,99.90
2018-03-15T07:54:00.918Z,99.90
2018-03-15T07:56:28.422Z,99.90
2018-03-15T07:58:55.968Z,99.90
2018-03-15T08:01:23.495Z,99.90
2018-03-15T08:03:51.003Z,99.90
2018-03-15T08:06:18.508Z,99.90
2018-03-15T08:08:46.020Z,99.90
2018-03-15T08:11:13.514Z,99.90
2018-03-15T08:13:41.039Z,99.90
2018-03-15T08:16:08.538Z,99.90
2018-03-15T08:18:36.142Z,99.90
2018-03-15T08:21:03.687Z,99.90
2018-03-15T08:23:31.962Z,99.90
2018-03-15T08:26:00.222Z,99.90
2018-03-15T08:28:27.821Z,99.90
2018-03-15T08:30:55.937Z,99.90
2018-03-15T08:33:23.468Z,99.90
2018-03-15T08:35:51.102Z,99.90
2018-03-15T08:38:18.674Z,99.90
2018-03-15T08:40:46.207Z,99.90
2018-03-15T08:43:14.472Z,99.90
2018-03-15T08:45:42.008Z,99.90
2018-03-15T08:48:09.503Z,99.90
2018-03-15T08:50:37.801Z,99.90
2018-03-15T08:53:05.366Z,99.90
2018-03-15T08:55:32.889Z,99.90
2018-03-15T08:58:00.391Z,99.90
2018-03-15T09:00:27.946Z,99.90
2018-03-15T09:02:55.508Z,99.90
2018-03-15T09:05:23.027Z,99.90
2018-03-15T09:07:50.516Z,99.90
2018-03-15T09:10:18.044Z,99.90
2018-03-15T09:12:45.614Z,99.90
2018-03-15T09:15:13.886Z,99.90
2018-03-15T09:17:42.157Z,99.90
2018-03-15T09:20:10.474Z,99.90
2018-03-15T09:22:37.974Z,99.90
2018-03-15T09:25:05.475Z,99.90
2018-03-15T09:27:33.051Z,99.90
2018-03-15T09:30:00.565Z,99.90
2018-03-15T09:32:28.058Z,99.90
2018-03-15T09:34:55.637Z,99.90
2018-03-15T09:37:23.101Z,99.90
2018-03-15T09:39:50.621Z,99.90
2018-03-15T09:42:18.187Z,99.90
2018-03-15T09:44:45.707Z,99.90
2018-03-15T09:47:13.221Z,99.90
2018-03-15T09:49:40.756Z,99.90
2018-03-15T09:52:08.336Z,99.90
2018-03-15T09:54:36.778Z,99.90
2018-03-15T09:57:05.110Z,99.90
2018-03-15T09:59:32.649Z,99.90
2018-03-15T10:02:00.172Z,99.90
2018-03-15T10:04:28.489Z,99.90
2018-03-15T10:06:56.030Z,99.90
2018-03-15T10:09:23.741Z,99.90
2018-03-15T10:11:51.252Z,99.90
2018-03-15T10:14:18.783Z,99.90
2018-03-15T10:16:47.062Z,99.90
2018-03-15T10:19:15.335Z,99.90
2018-03-15T10:21:43.688Z,99.90
2018-03-15T10:24:11.180Z,99.90
2018-03-15T10:26:39.537Z,99.90
2018-03-15T10:29:07.130Z,99.90
2018-03-15T10:31:36.027Z,99.90
2018-03-15T10:34:04.334Z,99.90
2018-03-15T10:36:31.895Z,99.90
2018-03-15T10:38:59.423Z,99.90
2018-03-15T10:41:27.119Z,99.90
2018-03-15T10:43:54.636Z,99.90
2018-03-15T10:46:22.159Z,99.90
2018-03-15T10:48:49.661Z,99.90
2018-03-15T10:51:17.215Z,99.90
2018-03-15T10:53:45.489Z,99.90
2018-03-15T10:56:13.772Z,99.90
2018-03-15T10:58:41.298Z,99.90
2018-03-15T11:01:08.842Z,99.90
2018-03-15T11:03:42.081Z,99.90
2018-03-15T11:06:10.530Z,99.90
2018-03-15T11:08:38.036Z,99.90
2018-03-15T11:11:05.570Z,99.90
2018-03-15T11:13:33.933Z,99.90
2018-03-15T11:16:01.406Z,99.90
2018-03-15T11:18:28.985Z,99.90
2018-03-15T11:20:56.558Z,99.90
2018-03-15T11:23:24.062Z,99.90
2018-03-15T11:25:52.363Z,99.90
2018-03-15T11:28:20.658Z,99.90
2018-03-15T11:30:48.249Z,99.90
2018-03-15T11:33:15.940Z,99.90
2018-03-15T11:35:44.273Z,99.90
2018-03-15T11:38:11.832Z,99.90
2018-03-15T11:40:39.427Z,99.90
2018-03-15T11:43:06.951Z,99.90
2018-03-15T11:45:34.509Z,98.90
2018-03-15T11:48:02.074Z,99.90
2018-03-15T11:50:29.571Z,99.90
2018-03-15T11:52:57.084Z,99.90
2018-03-15T11:55:24.603Z,99.90
2018-03-15T11:57:52.239Z,99.90
2018-03-15T12:00:19.799Z,99.90
2018-03-15T12:02:47.276Z,99.90
2018-03-15T12:05:14.820Z,99.90
2018-03-15T12:07:42.462Z,99.90
2018-03-15T12:10:09.978Z,99.90
2018-03-15T12:12:38.314Z,99.90
2018-03-15T12:15:05.882Z,99.90
2018-03-15T12:17:33.510Z,99.90
2018-03-15T12:20:01.003Z,99.90
2018-03-15T12:22:28.548Z,99.90
2018-03-15T12:24:56.047Z,99.90
2018-03-15T12:27:23.600Z,99.10
2018-03-15T12:29:51.165Z,98.00
2018-03-15T12:32:18.679Z,97.00
2018-03-15T12:34:46.187Z,97.60
2018-03-15T12:37:13.706Z,96.00
2018-03-15T12:39:41.245Z,95.90
2018-03-15T12:42:09.536Z,96.70
2018-03-15T12:44:37.072Z,96.60
2018-03-15T12:47:04.623Z,96.00
2018-03-15T12:49:32.238Z,94.40
2018-03-15T12:51:59.744Z,92.60
2018-03-15T12:54:28.022Z,91.80
2018-03-15T12:56:56.296Z,92.00
2018-03-15T12:59:24.573Z,94.50
2018-03-15T13:01:52.844Z,94.70
2018-03-15T13:04:21.126Z,94.90
2018-03-15T13:06:49.397Z,95.10
2018-03-15T13:09:18.400Z,95.40
2018-03-15T13:11:46.674Z,97.20
2018-03-15T13:14:14.971Z,97.30
2018-03-15T13:16:42.517Z,97.30
2018-03-15T13:19:10.051Z,98.20
2018-03-15T13:21:37.644Z,98.70
2018-03-15T13:24:05.220Z,99.00
2018-03-15T13:26:32.863Z,99.60
2018-03-15T13:29:00.917Z,99.90
2018-03-15T13:31:29.242Z,99.90
2018-03-15T13:33:56.744Z,99.90
2018-03-15T13:36:25.149Z,99.90
2018-03-15T13:38:52.680Z,99.90
2018-03-15T13:41:20.185Z,99.90
2018-03-15T13:43:47.671Z,99.90
2018-03-15T13:46:15.383Z,99.90
2018-03-15T13:48:42.912Z,99.90
2018-03-15T13:51:10.636Z,99.90
2018-03-15T13:53:38.346Z,99.90
2018-03-15T13:56:05.860Z,99.90
2018-03-15T13:58:33.357Z,99.90
2018-03-15T14:01:00.910Z,99.90
2018-03-15T14:03:28.435Z,99.90
2018-03-15T14:05:55.954Z,99.90
2018-03-15T14:08:23.475Z,99.90
2018-03-15T14:10:51.023Z,99.90
2018-03-15T14:13:18.532Z,99.90
2018-03-15T14:15:46.807Z,99.90
2018-03-15T14:18:15.118Z,99.90
2018-03-15T14:20:42.628Z,99.90
2018-03-15T14:23:10.142Z,99.90
2018-03-15T14:25:37.660Z,99.90
2018-03-15T14:28:05.920Z,99.90
2018-03-15T14:30:33.420Z,99.90
2018-03-15T14:33:00.931Z,99.90
2018-03-15T14:35:28.978Z,99.90
2018-03-15T14:37:56.502Z,99.90
2018-03-15T14:40:23.995Z,99.90
2018-03-15T14:42:51.488Z,99.90
2018-03-15T14:45:19.037Z,99.90
2018-03-15T14:47:46.546Z,99.90
2018-03-15T14:50:14.172Z,99.90
2018-03-15T14:52:41.732Z,99.90
2018-03-15T14:55:09.271Z,99.90
2018-03-15T14:57:37.564Z,99.90
2018-03-15T15:00:05.833Z,99.90
2018-03-15T15:02:34.137Z,99.90
2018-03-15T15:05:02.408Z,99.90
2018-03-15T15:07:29.935Z,99.90
2018-03-15T15:09:57.463Z,99.90
2018-03-15T15:12:25.907Z,99.90
2018-03-15T15:14:54.172Z,99.90
2018-03-15T15:17:21.688Z,99.90
2018-03-15T15:19:49.220Z,99.90
2018-03-15T15:22:16.758Z,99.90
2018-03-15T15:24:45.025Z,99.90
2018-03-15T15:27:12.623Z,99.90
2018-03-15T15:29:40.866Z,99.90
2018-03-15T15:32:08.368Z,99.90
2018-03-15T15:34:35.900Z,99.90
2018-03-15T15:37:04.175Z,99.90
2018-03-15T15:39:32.483Z,99.90
2018-03-15T15:41:59.993Z,99.90
2018-03-15T15:44:27.602Z,99.90
2018-03-15T15:46:55.362Z,99.90
2018-03-15T15:49:22.874Z,99.90
2018-03-15T15:51:51.159Z,99.90
2018-03-15T15:54:19.434Z,99.90
2018-03-15T15:56:46.943Z,99.90
2018-03-15T15:59:14.456Z,99.90
2018-03-15T16:01:42.762Z,99.90
2018-03-15T16:04:10.269Z,99.90
2018-03-15T16:06:37.793Z,99.90
2018-03-15T16:09:05.298Z,99.90
2018-03-15T16:11:33.578Z,99.90
2018-03-15T16:14:01.520Z,99.90
2018-03-15T16:16:29.064Z,99.90
2018-03-15T16:18:56.769Z,99.90
2018-03-15T16:21:24.340Z,99.90
2018-03-15T16:23:51.952Z,99.90
2018-03-15T16:26:19.622Z,99.90
2018-03-15T16:28:47.295Z,99.90
2018-03-15T16:31:14.802Z,99.90
2018-03-15T16:33:42.346Z,99.90
2018-03-15T16:36:10.666Z,99.90
2018-03-15T16:38:39.053Z,99.90
2018-03-15T16:41:06.563Z,99.90
2018-03-15T16:43:34.890Z,99.90
2018-03-15T16:46:02.412Z,99.90
2018-03-15T16:48:30.729Z,99.90
2018-03-15T16:50:58.555Z,99.90
2018-03-15T16:53:26.071Z,99.90
2018-03-15T16:55:53.593Z,99.90
2018-03-15T16:58:21.196Z,99.90
2018-03-15T17:00:48.717Z,99.90
2018-03-15T17:03:16.243Z,99.90
2018-03-15T17:05:44.602Z,99.90
2018-03-15T17:08:12.442Z,99.90
2018-03-15T17:10:40.071Z,99.90
2018-03-15T17:13:07.633Z,99.90
2018-03-15T17:15:35.175Z,99.90
2018-03-15T17:18:03.451Z,99.90
2018-03-15T17:20:31.806Z,99.90
2018-03-15T17:23:00.119Z,99.90
2018-03-15T17:25:28.400Z,99.90
2018-03-15T17:27:55.891Z,99.90
2018-03-15T17:30:23.526Z,99.90
2018-03-15T17:32:51.277Z,99.90
2018-03-15T17:35:18.795Z,99.90
2018-03-15T17:37:47.075Z,99.90
2018-03-15T17:40:14.655Z,99.90
2018-03-15T17:42:42.982Z,99.90
2018-03-15T17:45:10.436Z,99.90
2018-03-15T17:47:37.945Z,99.90
2018-03-15T17:50:06.222Z,99.90
2018-03-15T17:52:34.563Z,99.90
2018-03-15T17:55:02.445Z,99.90
2018-03-15T17:57:30.862Z,99.90
2018-03-15T17:59:59.149Z,99.90
2018-03-15T18:02:26.660Z,99.90
2018-03-15T18:04:55.551Z,99.90
2018-03-15T18:07:23.074Z,99.90
2018-03-15T18:09:50.575Z,99.90
2018-03-15T18:12:18.081Z,99.90
2018-03-15T18:14:45.974Z,99.90
2018-03-15T18:17:13.463Z,99.90
2018-03-15T18:19:41.005Z,99.90
2018-03-15T18:22:08.568Z,99.90
2018-03-15T18:24:36.074Z,99.90
2018-03-15T18:27:03.576Z,99.90
2018-03-15T18:29:31.063Z,99.90
2018-03-15T18:31:58.611Z,99.90
2018-03-15T18:34:26.111Z,99.90
2018-03-15T18:36:53.611Z,99.90
2018-03-15T18:39:21.126Z,99.90
2018-03-15T18:41:48.631Z,99.90
2018-03-15T18:44:16.159Z,99.90
2018-03-15T18:46:43.712Z,99.90
2018-03-15T18:49:11.218Z,99.90
2018-03-15T18:51:38.731Z,99.90
2018-03-15T18:54:06.297Z,99.90
2018-03-15T18:56:33.825Z,99.90
2018-03-15T18:59:02.194Z,99.90
2018-03-15T19:01:29.604Z,99.90
2018-03-15T19:03:57.108Z,99.90
2018-03-15T19:06:25.415Z,99.90
2018-03-15T19:08:52.926Z,99.90
2018-03-15T19:11:21.220Z,99.90
2018-03-15T19:13:48.752Z,99.90
2018-03-15T19:16:16.255Z,99.90
2018-03-15T19:18:43.756Z,99.90
2018-03-15T19:21:11.277Z,99.90
2018-03-15T19:23:38.902Z,99.90
2018-03-15T19:26:06.516Z,99.90
2018-03-15T19:28:34.049Z,99.90
2018-03-15T19:31:02.312Z,99.90
2018-03-15T19:33:30.638Z,99.90
2018-03-15T19:35:58.152Z,99.90
2018-03-15T19:38:26.402Z,99.90
2018-03-15T19:40:53.925Z,99.90
2018-03-15T19:43:21.431Z,99.90
2018-03-15T19:45:48.944Z,99.90
2018-03-15T19:48:16.442Z,99.90
2018-03-15T19:50:44.019Z,99.90
2018-03-15T19:53:11.515Z,99.90
2018-03-15T19:55:39.031Z,99.90
2018-03-15T19:58:06.621Z,99.90
2018-03-15T20:00:34.200Z,99.90
2018-03-15T20:03:01.693Z,99.90
2018-03-15T20:05:29.204Z,99.90
2018-03-15T20:07:56.705Z,99.90
2018-03-15T20:10:24.228Z,99.90
2018-03-15T20:12:51.719Z,99.90
2018-03-15T20:15:20.236Z,99.90
2018-03-15T20:17:48.508Z,99.90
2018-03-15T20:20:16.035Z,99.90
2018-03-15T20:22:49.354Z,99.90
2018-03-15T20:25:17.801Z,99.90
2018-03-15T20:27:51.157Z,99.90
2018-03-15T20:30:19.532Z,99.90
2018-03-15T20:32:53.947Z,99.90
2018-03-15T20:35:22.567Z,99.90
2018-03-15T20:37:50.091Z,99.90
2018-03-15T20:40:24.210Z,99.90
2018-03-15T20:42:53.851Z,99.90
2018-03-15T20:45:27.093Z,99.90
2018-03-15T20:48:00.499Z,99.90
2018-03-15T20:50:29.026Z,99.90
2018-03-15T20:52:56.546Z,99.90
2018-03-15T20:55:24.165Z,99.90
2018-03-15T20:57:51.714Z,99.90
2018-03-15T21:00:19.226Z,99.90
2018-03-15T21:02:47.509Z,99.90
2018-03-15T21:05:15.143Z,99.90
2018-03-15T21:10:16.558Z,99.90
2018-03-15T21:12:44.090Z,99.90
2018-03-15T21:15:12.393Z,99.90
2018-03-15T21:17:39.965Z,99.90
2018-03-15T21:20:07.486Z,99.90
2018-03-15T21:22:35.027Z,99.90
2018-03-15T21:25:02.595Z,99.90
2018-03-15T21:27:30.127Z,99.90
2018-03-15T21:29:57.638Z,99.90
2018-03-15T21:32:25.136Z,99.90
2018-03-15T21:34:52.642Z,99.90
2018-03-15T21:37:20.161Z,99.90
2018-03-15T21:39:47.797Z,99.90
2018-03-15T21:42:15.353Z,99.90
2018-03-15T21:44:42.933Z,99.90
2018-03-15T21:47:11.168Z,99.90
2018-03-15T21:49:38.706Z,99.90
2018-03-15T21:52:06.200Z,99.90
2018-03-15T21:54:33.751Z,99.90
2018-03-15T21:57:01.411Z,99.90
2018-03-15T21:59:28.923Z,99.90
2018-03-15T22:01:56.435Z,99.90
2018-03-15T22:04:23.989Z,99.90
2018-03-15T22:06:52.513Z,99.90
2018-03-15T22:09:20.125Z,99.90
2018-03-15T22:11:47.663Z,99.90
2018-03-15T22:14:15.181Z,99.90
2018-03-15T22:16:42.834Z,99.90
2018-03-15T22:19:10.376Z,99.90
2018-03-15T22:21:37.880Z,99.90
2018-03-15T22:24:05.364Z,99.90
2018-03-15T22:26:32.863Z,99.90
2018-03-15T22:29:00.371Z,99.90
2018-03-15T22:31:27.959Z,99.90
2018-03-15T22:33:56.242Z,99.90
2018-03-15T22:36:23.756Z,99.90
2018-03-15T22:38:51.386Z,99.90
2018-03-15T22:41:18.892Z,99.90
2018-03-15T22:43:46.419Z,99.90
2018-03-15T22:46:14.129Z,99.90
2018-03-15T22:48:41.642Z,99.90
2018-03-15T22:51:09.207Z,99.90
2018-03-15T22:53:36.895Z,99.90
2018-03-15T22:56:04.427Z,99.90
2018-03-15T22:58:31.968Z,99.90
2018-03-15T23:00:59.677Z,99.90
2018-03-15T23:03:27.239Z,99.90
2018-03-15T23:05:55.655Z,99.90
2018-03-15T23:08:23.192Z,99.90
2018-03-15T23:10:50.730Z,99.90
2018-03-15T23:13:18.266Z,99.90
2018-03-15T23:15:45.759Z,99.90
2018-03-15T23:18:14.086Z,99.90
2018-03-15T23:20:41.648Z,99.90
2018-03-15T23:23:09.881Z,99.90
2018-03-15T23:25:37.403Z,99.90
2018-03-15T23:28:04.906Z,99.90
2018-03-15T23:30:32.492Z,99.90
2018-03-15T23:33:00.148Z,99.90
2018-03-15T23:35:27.677Z,99.90
2018-03-15T23:37:55.269Z,99.90
2018-03-15T23:40:22.851Z,99.90
2018-03-15T23:42:50.355Z,99.90
2018-03-15T23:45:18.626Z,99.90
2018-03-15T23:47:46.610Z,99.90
2018-03-15T23:50:14.921Z,99.90
2018-03-15T23:52:42.453Z,99.90
2018-03-15T23:55:10.741Z,99.90
2018-03-15T23:57:38.321Z,99.90
